Oil Finn — OJ9326 — position and weather

sailwx.info

Track history (hours):
 
Tides and Currents Weather Stations Pressure Air Temp Water Temp Dewpoint Dewpoint Depression Visibility Wind Speed Wind Dir Waves Ship Positions

Oil Finn

Last reported at 2017-Jun-23 04:58 UTC. Time now 2017-Jun-23 05:15 UTC.
Position N 60°11' E 024°58'.

Length 20 m; draft 2 m.

Type: Tanker. MMSI: 230033790.

Date/timePositionNaut miles runAvg speedWind from/ knotsBaromVisibWave heightAir tempDewpointWater temp
2017-Jun-23 04:58N 60°11' E 024°58'0 0.0
2017-Jun-23 04:28N 60°11' E 024°58'0 0.0
2017-Jun-23 03:58N 60°11' E 024°58'0 0.0
2017-Jun-23 03:28N 60°11' E 024°58'0 0.0
2017-Jun-23 02:58N 60°11' E 024°58'0 0.0
2017-Jun-23 02:28N 60°11' E 024°58'0 0.0
2017-Jun-23 01:58N 60°11' E 024°58'0 0.0
2017-Jun-23 01:28N 60°11' E 024°58'0 0.0
2017-Jun-23 00:58N 60°11' E 024°58'0 0.0
2017-Jun-23 00:28N 60°11' E 024°58'0 0.0
2017-Jun-22 23:55N 60°11' E 024°58'0 0.0
2017-Jun-22 23:28N 60°11' E 024°58'0 0.0
2017-Jun-22 22:58N 60°11' E 024°58'0 0.0
2017-Jun-22 22:28N 60°11' E 024°58'0 0.0
2017-Jun-22 21:58N 60°11' E 024°58'0 0.0
2017-Jun-22 21:25N 60°11' E 024°58'0 0.0
2017-Jun-22 20:58N 60°11' E 024°58'0 0.0
2017-Jun-22 20:28N 60°11' E 024°58'0 0.0
2017-Jun-22 19:58N 60°11' E 024°58'0 0.0
2017-Jun-22 19:28N 60°11' E 024°58'0 0.0
2017-Jun-22 18:58N 60°11' E 024°58'0 0.0
2017-Jun-22 18:28N 60°11' E 024°58'0 0.0
2017-Jun-22 17:58N 60°11' E 024°58'0 0.0
2017-Jun-22 17:28N 60°11' E 024°58'0 0.0
2017-Jun-22 16:52N 60°11' E 024°58'0 0.0
2017-Jun-22 16:28N 60°11' E 024°58'0 0.0
2017-Jun-22 15:58N 60°11' E 024°58'0 0.0
2017-Jun-22 15:28N 60°11' E 024°58'0 0.0
2017-Jun-22 14:58N 60°11' E 024°58'0 0.0
2017-Jun-22 13:58N 60°11' E 024°58'0 0.0
2017-Jun-22 13:28N 60°11' E 024°58'0 0.0
2017-Jun-22 12:58N 60°11' E 024°58'0 0.0
2017-Jun-22 12:28N 60°11' E 024°58'0 0.0
2017-Jun-22 11:58N 60°11' E 024°58'0 0.0
2017-Jun-22 11:28N 60°11' E 024°58'0 0.0
2017-Jun-22 10:58N 60°11' E 024°58'0 0.0
2017-Jun-22 10:28N 60°11' E 024°58'0 0.0
2017-Jun-22 09:58N 60°11' E 024°58'0 0.0
2017-Jun-22 09:28N 60°11' E 024°58'0 0.2
2017-Jun-22 09:00N 60°11' E 024°58'2 3.4
2017-Jun-22 08:30N 60°09' E 024°59'1 2.3
2017-Jun-22 08:00N 60°09' E 024°57'0 0.4
2017-Jun-22 07:30N 60°09' E 024°57'0 0.0
2017-Jun-22 07:00N 60°09' E 024°57'0 0.1
2017-Jun-22 06:31N 60°09' E 024°57'1 2.6
2017-Jun-22 06:00N 60°10' E 024°58'0 0.2
2017-Jun-22 05:30N 60°10' E 024°58'1 1.0
2017-Jun-22 05:01N 60°11' E 024°59'0 0.0
2017-Jun-22 04:31N 60°11' E 024°59'0 0.9
2017-Jun-22 03:58N 60°11' E 024°58'1 0.0
2017-Jun-21 10:16N 60°11' E 024°58'0 1.4
2017-Jun-21 10:01N 60°11' E 024°58'0 0.9
2017-Jun-21 09:30N 60°10' E 024°58'0 0.0
2017-Jun-21 09:01N 60°10' E 024°58'0 0.0
2017-Jun-21 08:30N 60°10' E 024°58'1 1.5
2017-Jun-21 08:00N 60°10' E 024°59'1 1.8
2017-Jun-21 07:30N 60°09' E 024°59'0 0.0
2017-Jun-21 07:00N 60°09' E 024°59'1 2.9
2017-Jun-21 06:30N 60°10' E 024°57'1 1.8
2017-Jun-21 06:01N 60°10' E 024°59'0 0.4
2017-Jun-21 05:30N 60°10' E 024°59'2 0.1
2017-Jun-20 06:56N 60°11' E 024°58'2 4.0
2017-Jun-20 06:30N 60°09' E 024°58'0 0.9
2017-Jun-20 06:00N 60°09' E 024°57'2 3.7
2017-Jun-20 05:30N 60°11' E 024°58'0 0.0
2017-Jun-19 11:33N 60°11' E 024°58'0 0.0
2017-Jun-19 11:30N 60°11' E 024°58'1 1.3
2017-Jun-19 11:00N 60°10' E 024°58'0 0.2
2017-Jun-19 10:31N 60°10' E 024°58'1 2.7
2017-Jun-19 10:00N 60°09' E 024°59'1 1.9
2017-Jun-19 09:30N 60°09' E 024°58'0 0.8
2017-Jun-19 09:00N 60°09' E 024°57'0 0.0
2017-Jun-19 08:30N 60°09' E 024°57'0 0.0
2017-Jun-19 08:00N 60°09' E 024°57'0 0.0
2017-Jun-19 07:30N 60°09' E 024°57'0 0.3
2017-Jun-19 07:01N 60°09' E 024°56'1 2.4
2017-Jun-19 06:30N 60°10' E 024°59'1 2.0
2017-Jun-19 06:00N 60°11' E 024°58'0 0.0
2017-Jun-19 05:30N 60°11' E 024°58'0 0.0
2017-Jun-19 04:58N 60°11' E 024°58'0 0.0
2017-Jun-19 04:28N 60°11' E 024°58'1 1.2
2017-Jun-19 03:58N 60°11' E 024°58'0 0.0
2017-Jun-19 03:28N 60°11' E 024°58'0 0.0
2017-Jun-19 02:58N 60°11' E 024°58'0 0.0
2017-Jun-19 02:28N 60°11' E 024°58'0 0.0
2017-Jun-19 01:58N 60°11' E 024°58'0 0.0
2017-Jun-19 01:25N 60°11' E 024°58'0 0.0
2017-Jun-19 00:58N 60°11' E 024°58'0 0.0
2017-Jun-19 00:28N 60°11' E 024°58'0 0.0
2017-Jun-18 23:58N 60°11' E 024°58'0 0.0
2017-Jun-18 23:28N 60°11' E 024°58'0 0.0
2017-Jun-18 22:58N 60°11' E 024°58'0 0.0
2017-Jun-18 22:28N 60°11' E 024°58'0 0.0
2017-Jun-18 21:58N 60°11' E 024°58'0 0.0
2017-Jun-18 21:28N 60°11' E 024°58'0 0.0
2017-Jun-18 20:58N 60°11' E 024°58'0 0.0
2017-Jun-18 20:28N 60°11' E 024°58'0 0.0
2017-Jun-18 19:58N 60°11' E 024°58'0 0.0
2017-Jun-18 19:28N 60°11' E 024°58'0 0.0
2017-Jun-18 18:58N 60°11' E 024°58'0 0.0
2017-Jun-18 18:28N 60°11' E 024°58'0 0.0
2017-Jun-18 17:52N 60°11' E 024°58'0 0.0
2017-Jun-18 17:28N 60°11' E 024°58'0 0.0
2017-Jun-18 16:55N 60°11' E 024°58'0 0.0
2017-Jun-18 16:28N 60°11' E 024°58'0 0.0
2017-Jun-18 15:58N 60°11' E 024°58'0 0.0
2017-Jun-18 15:28N 60°11' E 024°58'0 0.0
2017-Jun-18 14:49N 60°11' E 024°58'0 0.0
2017-Jun-18 13:52N 60°11' E 024°58'0 0.0
2017-Jun-18 13:28N 60°11' E 024°58'0 0.0
2017-Jun-18 12:55N 60°11' E 024°58'0 0.0
2017-Jun-18 12:28N 60°11' E 024°58'0 0.0
2017-Jun-18 11:58N 60°11' E 024°58'0 0.0
2017-Jun-18 11:28N 60°11' E 024°58'0 0.0
2017-Jun-18 10:55N 60°11' E 024°58'0 0.0
2017-Jun-18 10:22N 60°11' E 024°58'0 0.0
2017-Jun-18 09:58N 60°11' E 024°58'0 0.0
2017-Jun-18 09:28N 60°11' E 024°58'0 0.0
2017-Jun-18 08:58N 60°11' E 024°58'0 0.0
2017-Jun-18 08:28N 60°11' E 024°58'0 0.0
2017-Jun-18 07:58N 60°11' E 024°58'0 0.0
2017-Jun-18 07:28N 60°11' E 024°58'0 0.0
2017-Jun-18 06:54N 60°11' E 024°58'0 0.1
2017-Jun-18 06:30N 60°11' E 024°58'0 0.0
2017-Jun-18 05:54N 60°11' E 024°58'0 0.0
2017-Jun-18 05:30N 60°11' E 024°58'0 0.0
2017-Jun-18 05:00N 60°11' E 024°58'0 0.0
2017-Jun-18 04:30N 60°11' E 024°58'0 0.0
2017-Jun-18 04:00N 60°11' E 024°58'0 0.0
2017-Jun-18 03:30N 60°11' E 024°58'0 0.0
2017-Jun-18 03:01N 60°11' E 024°58'0 0.0
2017-Jun-18 02:24N 60°11' E 024°58'0 0.0
2017-Jun-18 02:00N 60°11' E 024°58'0 0.0
2017-Jun-18 01:30N 60°11' E 024°58'0 0.0
2017-Jun-18 01:00N 60°11' E 024°58'0 0.0
2017-Jun-18 00:30N 60°11' E 024°58'0 0.0
2017-Jun-17 23:57N 60°11' E 024°58'0 0.0
2017-Jun-17 23:24N 60°11' E 024°58'0 0.0
2017-Jun-17 23:00N 60°11' E 024°58'0 0.0
2017-Jun-17 22:30N 60°11' E 024°58'0 0.0
2017-Jun-17 22:00N 60°11' E 024°58'0 0.0
2017-Jun-17 21:30N 60°11' E 024°58'0 0.0
2017-Jun-17 21:00N 60°11' E 024°58'0 0.0
2017-Jun-17 20:30N 60°11' E 024°58'0 0.0
2017-Jun-17 19:57N 60°11' E 024°58'0 0.0
2017-Jun-17 19:28N 60°11' E 024°58'0 0.0
2017-Jun-17 19:00N 60°11' E 024°58'0 0.0
2017-Jun-17 18:30N 60°11' E 024°58'0 0.0
2017-Jun-17 18:00N 60°11' E 024°58'0 0.0
2017-Jun-17 17:30N 60°11' E 024°58'0 0.0
2017-Jun-17 17:00N 60°11' E 024°58'0 0.0
2017-Jun-17 16:30N 60°11' E 024°58'0 0.0
2017-Jun-17 16:00N 60°11' E 024°58'0 0.0
2017-Jun-17 15:30N 60°11' E 024°58'0 0.0
2017-Jun-17 15:00N 60°11' E 024°58'0 0.0
2017-Jun-17 13:57N 60°11' E 024°58'0 0.0
2017-Jun-17 13:30N 60°11' E 024°58'0 0.0
2017-Jun-17 13:00N 60°11' E 024°58'0 0.0
2017-Jun-17 12:30N 60°11' E 024°58'0 0.0
2017-Jun-17 12:00N 60°11' E 024°58'0 0.0
2017-Jun-17 11:30N 60°11' E 024°58'0 0.0
2017-Jun-17 11:00N 60°11' E 024°58'0 0.0
2017-Jun-17 10:30N 60°11' E 024°58'0 0.0
2017-Jun-17 10:00N 60°11' E 024°58'0 0.0
2017-Jun-17 09:30N 60°11' E 024°58'0 0.0
2017-Jun-17 09:00N 60°11' E 024°58'0 0.0
2017-Jun-17 08:30N 60°11' E 024°58'0 0.0
2017-Jun-17 08:00N 60°11' E 024°58'0 0.0
2017-Jun-17 07:27N 60°11' E 024°58'0 0.0
2017-Jun-17 07:00N 60°11' E 024°58'0 0.0
2017-Jun-17 06:30N 60°11' E 024°58'0 0.0
2017-Jun-17 06:00N 60°11' E 024°58'0 0.0
2017-Jun-17 05:30N 60°11' E 024°58'0 0.0
2017-Jun-17 05:00N 60°11' E 024°58'0 0.0
2017-Jun-17 04:30N 60°11' E 024°58'0 0.0
2017-Jun-17 04:00N 60°11' E 024°58'0 0.0
2017-Jun-17 03:30N 60°11' E 024°58'0 0.0
2017-Jun-17 03:00N 60°11' E 024°58'0 0.0
2017-Jun-17 02:30N 60°11' E 024°58'0 0.0
2017-Jun-17 01:57N 60°11' E 024°58'0 0.0
2017-Jun-17 01:30N 60°11' E 024°58'0 0.0
2017-Jun-17 01:00N 60°11' E 024°58'0 0.0
2017-Jun-17 00:30N 60°11' E 024°58'0 0.0
2017-Jun-17 00:00N 60°11' E 024°58'0 0.0
2017-Jun-16 23:30N 60°11' E 024°58'0 0.0
2017-Jun-16 23:00N 60°11' E 024°58'0 0.0
2017-Jun-16 22:27N 60°11' E 024°58'0 0.0
2017-Jun-16 21:54N 60°11' E 024°58'0 0.0
2017-Jun-16 21:30N 60°11' E 024°58'0 0.0
2017-Jun-16 21:00N 60°11' E 024°58'0 0.0
2017-Jun-16 20:30N 60°11' E 024°58'0 0.0
2017-Jun-16 20:00N 60°11' E 024°58'0 0.0
2017-Jun-16 19:30N 60°11' E 024°58'0 0.0
2017-Jun-16 19:00N 60°11' E 024°58'0 0.0
2017-Jun-16 18:24N 60°11' E 024°58'0 0.0
2017-Jun-16 17:57N 60°11' E 024°58'0 0.0
2017-Jun-16 17:30N 60°11' E 024°58'0 0.0
2017-Jun-16 17:00N 60°11' E 024°58'0 0.0
2017-Jun-16 16:29N 60°11' E 024°58'0 0.0
2017-Jun-16 15:59N 60°11' E 024°58'0 0.0
2017-Jun-16 15:29N 60°11' E 024°58'0 0.0
2017-Jun-16 14:59N 60°11' E 024°58'0 0.0
2017-Jun-16 14:29N 60°11' E 024°58'0 0.0
2017-Jun-16 13:27N 60°11' E 024°58'0 0.0
2017-Jun-16 12:59N 60°11' E 024°58'0 0.0
2017-Jun-16 12:29N 60°11' E 024°58'0 0.0
2017-Jun-16 12:00N 60°11' E 024°58'1 1.5
2017-Jun-16 11:31N 60°10' E 024°58'0 0.5
2017-Jun-16 11:00N 60°10' E 024°58'1 1.8
2017-Jun-16 10:30N 60°10' E 024°59'1 1.1
2017-Jun-16 10:00N 60°09' E 024°59'0 0.8
2017-Jun-16 09:30N 60°09' E 024°59'0 0.0
2017-Jun-16 09:00N 60°09' E 024°59'1 1.5
2017-Jun-16 08:30N 60°09' E 024°58'0 0.9
2017-Jun-16 08:00N 60°09' E 024°57'0 0.0
2017-Jun-16 07:30N 60°09' E 024°57'0 0.0
2017-Jun-16 07:00N 60°09' E 024°57'0 0.0
2017-Jun-16 06:30N 60°09' E 024°57'0 0.4
2017-Jun-16 06:00N 60°09' E 024°57'2 3.5
2017-Jun-16 05:28N 60°11' E 024°58'1 1.0
2017-Jun-16 04:57N 60°11' E 024°59'0 0.0
2017-Jun-16 04:27N 60°11' E 024°59'1 0.0
2017-Jun-15 09:56N 60°11' E 024°58'2 3.3
2017-Jun-15 09:29N 60°10' E 024°59'2 0.1
2017-Jun-14 09:39N 60°11' E 024°58'0 0.1
2017-Jun-14 09:30N 60°11' E 024°58'1 1.7
2017-Jun-14 09:00N 60°10' E 024°58'0 0.0
2017-Jun-14 08:30N 60°10' E 024°58'0 0.3
2017-Jun-14 08:00N 60°10' E 024°58'0 0.2
2017-Jun-14 07:30N 60°10' E 024°58'1 2.5
2017-Jun-14 07:00N 60°09' E 024°59'1 2.3
2017-Jun-14 06:30N 60°09' E 024°57'0 0.4
2017-Jun-14 06:00N 60°09' E 024°57'2 3.0
2017-Jun-14 05:30N 60°10' E 024°58'  
Track history (hours):
 
Tides and Currents Weather Stations Pressure Air Temp Water Temp Dewpoint Dewpoint Depression Visibility Wind Speed Wind Dir Waves Ship Positions

Oil Finn

Last reported at 2017-Jun-23 04:58 UTC. Time now 2017-Jun-23 05:15 UTC.
Position N 60°11' E 024°58'.

Length 20 m; draft 2 m.

Type: Tanker. MMSI: 230033790.

Date/timePositionNaut miles runAvg speedWind from/ knotsBaromVisibWave heightAir tempDewpointWater temp
2017-Jun-23 04:58N 60°11' E 024°58'0 0.0
2017-Jun-23 04:28N 60°11' E 024°58'0 0.0
2017-Jun-23 03:58N 60°11' E 024°58'0 0.0
2017-Jun-23 03:28N 60°11' E 024°58'0 0.0
2017-Jun-23 02:58N 60°11' E 024°58'0 0.0
2017-Jun-23 02:28N 60°11' E 024°58'0 0.0
2017-Jun-23 01:58N 60°11' E 024°58'0 0.0
2017-Jun-23 01:28N 60°11' E 024°58'0 0.0
2017-Jun-23 00:58N 60°11' E 024°58'0 0.0
2017-Jun-23 00:28N 60°11' E 024°58'0 0.0
2017-Jun-22 23:55N 60°11' E 024°58'0 0.0
2017-Jun-22 23:28N 60°11' E 024°58'0 0.0
2017-Jun-22 22:58N 60°11' E 024°58'0 0.0
2017-Jun-22 22:28N 60°11' E 024°58'0 0.0
2017-Jun-22 21:58N 60°11' E 024°58'0 0.0
2017-Jun-22 21:25N 60°11' E 024°58'0 0.0
2017-Jun-22 20:58N 60°11' E 024°58'0 0.0
2017-Jun-22 20:28N 60°11' E 024°58'0 0.0
2017-Jun-22 19:58N 60°11' E 024°58'0 0.0
2017-Jun-22 19:28N 60°11' E 024°58'0 0.0
2017-Jun-22 18:58N 60°11' E 024°58'0 0.0
2017-Jun-22 18:28N 60°11' E 024°58'0 0.0
2017-Jun-22 17:58N 60°11' E 024°58'0 0.0
2017-Jun-22 17:28N 60°11' E 024°58'0 0.0
2017-Jun-22 16:52N 60°11' E 024°58'0 0.0
2017-Jun-22 16:28N 60°11' E 024°58'0 0.0
2017-Jun-22 15:58N 60°11' E 024°58'0 0.0
2017-Jun-22 15:28N 60°11' E 024°58'0 0.0
2017-Jun-22 14:58N 60°11' E 024°58'0 0.0
2017-Jun-22 13:58N 60°11' E 024°58'0 0.0
2017-Jun-22 13:28N 60°11' E 024°58'0 0.0
2017-Jun-22 12:58N 60°11' E 024°58'0 0.0
2017-Jun-22 12:28N 60°11' E 024°58'0 0.0
2017-Jun-22 11:58N 60°11' E 024°58'0 0.0
2017-Jun-22 11:28N 60°11' E 024°58'0 0.0
2017-Jun-22 10:58N 60°11' E 024°58'0 0.0
2017-Jun-22 10:28N 60°11' E 024°58'0 0.0
2017-Jun-22 09:58N 60°11' E 024°58'0 0.0
2017-Jun-22 09:28N 60°11' E 024°58'0 0.2
2017-Jun-22 09:00N 60°11' E 024°58'2 3.4
2017-Jun-22 08:30N 60°09' E 024°59'1 2.3
2017-Jun-22 08:00N 60°09' E 024°57'0 0.4
2017-Jun-22 07:30N 60°09' E 024°57'0 0.0
2017-Jun-22 07:00N 60°09' E 024°57'0 0.1
2017-Jun-22 06:31N 60°09' E 024°57'1 2.6
2017-Jun-22 06:00N 60°10' E 024°58'0 0.2
2017-Jun-22 05:30N 60°10' E 024°58'1 1.0
2017-Jun-22 05:01N 60°11' E 024°59'0 0.0
2017-Jun-22 04:31N 60°11' E 024°59'0 0.9
2017-Jun-22 03:58N 60°11' E 024°58'1 0.0
2017-Jun-21 10:16N 60°11' E 024°58'0 1.4
2017-Jun-21 10:01N 60°11' E 024°58'0 0.9
2017-Jun-21 09:30N 60°10' E 024°58'0 0.0
2017-Jun-21 09:01N 60°10' E 024°58'0 0.0
2017-Jun-21 08:30N 60°10' E 024°58'1 1.5
2017-Jun-21 08:00N 60°10' E 024°59'1 1.8
2017-Jun-21 07:30N 60°09' E 024°59'0 0.0
2017-Jun-21 07:00N 60°09' E 024°59'1 2.9
2017-Jun-21 06:30N 60°10' E 024°57'1 1.8
2017-Jun-21 06:01N 60°10' E 024°59'0 0.4
2017-Jun-21 05:30N 60°10' E 024°59'2 0.1
2017-Jun-20 06:56N 60°11' E 024°58'2 4.0
2017-Jun-20 06:30N 60°09' E 024°58'0 0.9
2017-Jun-20 06:00N 60°09' E 024°57'2 3.7
2017-Jun-20 05:30N 60°11' E 024°58'0 0.0
2017-Jun-19 11:33N 60°11' E 024°58'0 0.0
2017-Jun-19 11:30N 60°11' E 024°58'1 1.3
2017-Jun-19 11:00N 60°10' E 024°58'0 0.2
2017-Jun-19 10:31N 60°10' E 024°58'1 2.7
2017-Jun-19 10:00N 60°09' E 024°59'1 1.9
2017-Jun-19 09:30N 60°09' E 024°58'0 0.8
2017-Jun-19 09:00N 60°09' E 024°57'0 0.0
2017-Jun-19 08:30N 60°09' E 024°57'0 0.0
2017-Jun-19 08:00N 60°09' E 024°57'0 0.0
2017-Jun-19 07:30N 60°09' E 024°57'0 0.3
2017-Jun-19 07:01N 60°09' E 024°56'1 2.4
2017-Jun-19 06:30N 60°10' E 024°59'1 2.0
2017-Jun-19 06:00N 60°11' E 024°58'0 0.0
2017-Jun-19 05:30N 60°11' E 024°58'0 0.0
2017-Jun-19 04:58N 60°11' E 024°58'0 0.0
2017-Jun-19 04:28N 60°11' E 024°58'1 1.2
2017-Jun-19 03:58N 60°11' E 024°58'0 0.0
2017-Jun-19 03:28N 60°11' E 024°58'0 0.0
2017-Jun-19 02:58N 60°11' E 024°58'0 0.0
2017-Jun-19 02:28N 60°11' E 024°58'0 0.0
2017-Jun-19 01:58N 60°11' E 024°58'0 0.0
2017-Jun-19 01:25N 60°11' E 024°58'0 0.0
2017-Jun-19 00:58N 60°11' E 024°58'0 0.0
2017-Jun-19 00:28N 60°11' E 024°58'0 0.0
2017-Jun-18 23:58N 60°11' E 024°58'0 0.0
2017-Jun-18 23:28N 60°11' E 024°58'0 0.0
2017-Jun-18 22:58N 60°11' E 024°58'0 0.0
2017-Jun-18 22:28N 60°11' E 024°58'0 0.0
2017-Jun-18 21:58N 60°11' E 024°58'0 0.0
2017-Jun-18 21:28N 60°11' E 024°58'0 0.0
2017-Jun-18 20:58N 60°11' E 024°58'0 0.0
2017-Jun-18 20:28N 60°11' E 024°58'0 0.0
2017-Jun-18 19:58N 60°11' E 024°58'0 0.0
2017-Jun-18 19:28N 60°11' E 024°58'0 0.0
2017-Jun-18 18:58N 60°11' E 024°58'0 0.0
2017-Jun-18 18:28N 60°11' E 024°58'0 0.0
2017-Jun-18 17:52N 60°11' E 024°58'0 0.0
2017-Jun-18 17:28N 60°11' E 024°58'0 0.0
2017-Jun-18 16:55N 60°11' E 024°58'0 0.0
2017-Jun-18 16:28N 60°11' E 024°58'0 0.0
2017-Jun-18 15:58N 60°11' E 024°58'0 0.0
2017-Jun-18 15:28N 60°11' E 024°58'0 0.0
2017-Jun-18 14:49N 60°11' E 024°58'0 0.0
2017-Jun-18 13:52N 60°11' E 024°58'0 0.0
2017-Jun-18 13:28N 60°11' E 024°58'0 0.0
2017-Jun-18 12:55N 60°11' E 024°58'0 0.0
2017-Jun-18 12:28N 60°11' E 024°58'0 0.0
2017-Jun-18 11:58N 60°11' E 024°58'0 0.0
2017-Jun-18 11:28N 60°11' E 024°58'0 0.0
2017-Jun-18 10:55N 60°11' E 024°58'0 0.0
2017-Jun-18 10:22N 60°11' E 024°58'0 0.0
2017-Jun-18 09:58N 60°11' E 024°58'0 0.0
2017-Jun-18 09:28N 60°11' E 024°58'0 0.0
2017-Jun-18 08:58N 60°11' E 024°58'0 0.0
2017-Jun-18 08:28N 60°11' E 024°58'0 0.0
2017-Jun-18 07:58N 60°11' E 024°58'0 0.0
2017-Jun-18 07:28N 60°11' E 024°58'0 0.0
2017-Jun-18 06:54N 60°11' E 024°58'0 0.1
2017-Jun-18 06:30N 60°11' E 024°58'0 0.0
2017-Jun-18 05:54N 60°11' E 024°58'0 0.0
2017-Jun-18 05:30N 60°11' E 024°58'0 0.0
2017-Jun-18 05:00N 60°11' E 024°58'0 0.0
2017-Jun-18 04:30N 60°11' E 024°58'0 0.0
2017-Jun-18 04:00N 60°11' E 024°58'0 0.0
2017-Jun-18 03:30N 60°11' E 024°58'0 0.0
2017-Jun-18 03:01N 60°11' E 024°58'0 0.0
2017-Jun-18 02:24N 60°11' E 024°58'0 0.0
2017-Jun-18 02:00N 60°11' E 024°58'0 0.0
2017-Jun-18 01:30N 60°11' E 024°58'0 0.0
2017-Jun-18 01:00N 60°11' E 024°58'0 0.0
2017-Jun-18 00:30N 60°11' E 024°58'0 0.0
2017-Jun-17 23:57N 60°11' E 024°58'0 0.0
2017-Jun-17 23:24N 60°11' E 024°58'0 0.0
2017-Jun-17 23:00N 60°11' E 024°58'0 0.0
2017-Jun-17 22:30N 60°11' E 024°58'0 0.0
2017-Jun-17 22:00N 60°11' E 024°58'0 0.0
2017-Jun-17 21:30N 60°11' E 024°58'0 0.0
2017-Jun-17 21:00N 60°11' E 024°58'0 0.0
2017-Jun-17 20:30N 60°11' E 024°58'0 0.0
2017-Jun-17 19:57N 60°11' E 024°58'0 0.0
2017-Jun-17 19:28N 60°11' E 024°58'0 0.0
2017-Jun-17 19:00N 60°11' E 024°58'0 0.0
2017-Jun-17 18:30N 60°11' E 024°58'0 0.0
2017-Jun-17 18:00N 60°11' E 024°58'0 0.0
2017-Jun-17 17:30N 60°11' E 024°58'0 0.0
2017-Jun-17 17:00N 60°11' E 024°58'0 0.0
2017-Jun-17 16:30N 60°11' E 024°58'0 0.0
2017-Jun-17 16:00N 60°11' E 024°58'0 0.0
2017-Jun-17 15:30N 60°11' E 024°58'0 0.0
2017-Jun-17 15:00N 60°11' E 024°58'0 0.0
2017-Jun-17 13:57N 60°11' E 024°58'0 0.0
2017-Jun-17 13:30N 60°11' E 024°58'0 0.0
2017-Jun-17 13:00N 60°11' E 024°58'0 0.0
2017-Jun-17 12:30N 60°11' E 024°58'0 0.0
2017-Jun-17 12:00N 60°11' E 024°58'0 0.0
2017-Jun-17 11:30N 60°11' E 024°58'0 0.0
2017-Jun-17 11:00N 60°11' E 024°58'0 0.0
2017-Jun-17 10:30N 60°11' E 024°58'0 0.0
2017-Jun-17 10:00N 60°11' E 024°58'0 0.0
2017-Jun-17 09:30N 60°11' E 024°58'0 0.0
2017-Jun-17 09:00N 60°11' E 024°58'0 0.0
2017-Jun-17 08:30N 60°11' E 024°58'0 0.0
2017-Jun-17 08:00N 60°11' E 024°58'0 0.0
2017-Jun-17 07:27N 60°11' E 024°58'0 0.0
2017-Jun-17 07:00N 60°11' E 024°58'0 0.0
2017-Jun-17 06:30N 60°11' E 024°58'0 0.0
2017-Jun-17 06:00N 60°11' E 024°58'0 0.0
2017-Jun-17 05:30N 60°11' E 024°58'0 0.0
2017-Jun-17 05:00N 60°11' E 024°58'0 0.0
2017-Jun-17 04:30N 60°11' E 024°58'0 0.0
2017-Jun-17 04:00N 60°11' E 024°58'0 0.0
2017-Jun-17 03:30N 60°11' E 024°58'0 0.0
2017-Jun-17 03:00N 60°11' E 024°58'0 0.0
2017-Jun-17 02:30N 60°11' E 024°58'0 0.0
2017-Jun-17 01:57N 60°11' E 024°58'0 0.0
2017-Jun-17 01:30N 60°11' E 024°58'0 0.0
2017-Jun-17 01:00N 60°11' E 024°58'0 0.0
2017-Jun-17 00:30N 60°11' E 024°58'0 0.0
2017-Jun-17 00:00N 60°11' E 024°58'0 0.0
2017-Jun-16 23:30N 60°11' E 024°58'0 0.0
2017-Jun-16 23:00N 60°11' E 024°58'0 0.0
2017-Jun-16 22:27N 60°11' E 024°58'0 0.0
2017-Jun-16 21:54N 60°11' E 024°58'0 0.0
2017-Jun-16 21:30N 60°11' E 024°58'0 0.0
2017-Jun-16 21:00N 60°11' E 024°58'0 0.0
2017-Jun-16 20:30N 60°11' E 024°58'0 0.0
2017-Jun-16 20:00N 60°11' E 024°58'0 0.0
2017-Jun-16 19:30N 60°11' E 024°58'0 0.0
2017-Jun-16 19:00N 60°11' E 024°58'0 0.0
2017-Jun-16 18:24N 60°11' E 024°58'0 0.0
2017-Jun-16 17:57N 60°11' E 024°58'0 0.0
2017-Jun-16 17:30N 60°11' E 024°58'0 0.0
2017-Jun-16 17:00N 60°11' E 024°58'0 0.0
2017-Jun-16 16:29N 60°11' E 024°58'0 0.0
2017-Jun-16 15:59N 60°11' E 024°58'0 0.0
2017-Jun-16 15:29N 60°11' E 024°58'0 0.0
2017-Jun-16 14:59N 60°11' E 024°58'0 0.0
2017-Jun-16 14:29N 60°11' E 024°58'0 0.0
2017-Jun-16 13:27N 60°11' E 024°58'0 0.0
2017-Jun-16 12:59N 60°11' E 024°58'0 0.0
2017-Jun-16 12:29N 60°11' E 024°58'0 0.0
2017-Jun-16 12:00N 60°11' E 024°58'1 1.5
2017-Jun-16 11:31N 60°10' E 024°58'0 0.5
2017-Jun-16 11:00N 60°10' E 024°58'1 1.8
2017-Jun-16 10:30N 60°10' E 024°59'1 1.1
2017-Jun-16 10:00N 60°09' E 024°59'0 0.8
2017-Jun-16 09:30N 60°09' E 024°59'0 0.0
2017-Jun-16 09:00N 60°09' E 024°59'1 1.5
2017-Jun-16 08:30N 60°09' E 024°58'0 0.9
2017-Jun-16 08:00N 60°09' E 024°57'0 0.0
2017-Jun-16 07:30N 60°09' E 024°57'0 0.0
2017-Jun-16 07:00N 60°09' E 024°57'0 0.0
2017-Jun-16 06:30N 60°09' E 024°57'0 0.4
2017-Jun-16 06:00N 60°09' E 024°57'2 3.5
2017-Jun-16 05:28N 60°11' E 024°58'1 1.0
2017-Jun-16 04:57N 60°11' E 024°59'0 0.0
2017-Jun-16 04:27N 60°11' E 024°59'1 0.0
2017-Jun-15 09:56N 60°11' E 024°58'2 3.3
2017-Jun-15 09:29N 60°10' E 024°59'2 0.1
2017-Jun-14 09:39N 60°11' E 024°58'0 0.1
2017-Jun-14 09:30N 60°11' E 024°58'1 1.7
2017-Jun-14 09:00N 60°10' E 024°58'0 0.0
2017-Jun-14 08:30N 60°10' E 024°58'0 0.3
2017-Jun-14 08:00N 60°10' E 024°58'0 0.2
2017-Jun-14 07:30N 60°10' E 024°58'1 2.5
2017-Jun-14 07:00N 60°09' E 024°59'1 2.3
2017-Jun-14 06:30N 60°09' E 024°57'0 0.4
2017-Jun-14 06:00N 60°09' E 024°57'2 3.0
2017-Jun-14 05:30N 60°10' E 024°58'  

Dump ship's entire track history